VIBL weather

Bakshi Ka Talab Air Force Station
Lucknow, Uttar Pradesh, India

Public forecast

Using degrees Celsius for public forecast. Weather courtesy of forecast.io.

METAR (pilot weather report)

Closest report is Chaudhary Charan Singh International Airport, 13.7 nm (25.3 km) S. Retrieved 2019/09/16 13:30 UTC (0 seconds ago):

VILK 161330Z VRB02KT 3000 BR SCT020 SCT025 BKN200 28/27 Q1003 NOSIG

TAF (pilot weather forecast)

Closest forecast is Chaudhary Charan Singh International Airport, 13.7 nm (25.3 km) S. Retrieved 2019/09/16 12:00 UTC (1 hour ago):

TAF VILK 161100Z 1612/1718 VRB02KT 3000 BR -RA SCT015 SCT018 BKN090 TEMPO 1612/1616 1500 -TSRA SCT010 SCT015 FEW030CB OVC080 BECMG 1700/1702 00000KT 2000 BR SCT020 BKN100 BECMG 1706/1708 08006KT 4000 HZ TEMPO 1708/1712 1000 -TSRA SCT010 SCT015 FEW030CB OVC080